createdAt,value
2023-05-01T00:03:35.454Z,7.15
2023-05-01T00:07:42.609Z,7.77
2023-05-01T00:11:46.470Z,8.50
2023-05-01T00:15:51.661Z,9.33
2023-05-01T00:19:58.079Z,8.73
2023-05-01T00:24:01.634Z,8.47
2023-05-01T00:28:07.837Z,9.37
2023-05-01T00:32:17.445Z,8.13
2023-05-01T00:36:20.689Z,8.30
2023-05-01T00:40:24.043Z,8.13
2023-05-01T00:44:27.035Z,9.37
2023-05-01T00:48:33.584Z,8.13
2023-05-01T00:52:37.236Z,9.17
2023-05-01T00:56:40.779Z,7.03
2023-05-01T01:00:44.236Z,9.80
2023-05-01T01:04:53.072Z,8.27
2023-05-01T01:09:08.085Z,8.77
2023-05-01T01:13:16.605Z,8.57
2023-05-01T01:17:29.675Z,7.27
2023-05-01T01:21:39.540Z,11.43
2023-05-01T01:26:09.433Z,10.50
2023-05-01T01:30:59.259Z,10.97
2023-05-01T01:35:11.915Z,13.33
2023-05-01T01:39:26.897Z,11.07
2023-05-01T01:43:36.623Z,11.73
2023-05-01T01:47:43.636Z,9.73
2023-05-01T02:08:28.590Z,14.10
2023-05-01T02:52:36.223Z,16.50
2023-05-01T02:56:46.781Z,15.60
2023-05-01T03:05:03.980Z,13.03
2023-05-01T03:09:08.189Z,15.33
2023-05-01T03:13:11.766Z,14.53
2023-05-01T03:17:14.832Z,13.37
2023-05-01T03:21:19.203Z,15.73
2023-05-01T03:25:24.163Z,16.97
2023-05-01T03:29:27.549Z,15.80
2023-05-01T03:33:31.684Z,12.63
2023-05-01T03:37:36.276Z,18.93
2023-05-01T03:41:39.463Z,15.30
2023-05-01T03:45:44.912Z,16.10
2023-05-01T03:49:48.314Z,16.30
2023-05-01T03:54:01.665Z,15.23
2023-05-01T03:58:04.830Z,17.27
2023-05-01T04:02:10.849Z,18.73
2023-05-01T04:06:18.476Z,18.47
2023-05-01T04:10:23.132Z,18.63
2023-05-01T04:14:26.584Z,15.83
2023-05-01T04:18:35.682Z,23.73
2023-05-01T04:22:42.671Z,18.37
2023-05-01T04:26:47.069Z,14.53
2023-05-01T04:30:50.284Z,21.00
2023-05-01T04:34:53.888Z,23.03
2023-05-01T04:38:56.900Z,21.50
2023-05-01T04:43:01.688Z,16.70
2023-05-01T04:47:07.885Z,20.90
2023-05-01T04:51:11.077Z,15.00
2023-05-01T04:55:15.195Z,17.77
2023-05-01T04:59:19.617Z,20.83
2023-05-01T05:03:22.828Z,20.10
2023-05-01T05:07:28.893Z,24.53
2023-05-01T05:11:34.304Z,19.10
2023-05-01T05:15:38.943Z,16.27
2023-05-01T05:19:42.246Z,25.87
2023-05-01T05:23:45.518Z,20.73
2023-05-01T05:27:49.217Z,19.37
2023-05-01T05:31:53.881Z,22.40
2023-05-01T05:35:57.576Z,22.20
2023-05-01T05:40:02.749Z,19.37
2023-05-01T05:44:07.857Z,23.13
2023-05-01T05:48:12.432Z,19.20
2023-05-01T05:52:15.594Z,16.53
2023-05-01T05:56:20.151Z,17.93
2023-05-01T06:00:23.638Z,19.17
2023-05-01T06:04:28.158Z,17.60
2023-05-01T06:08:35.898Z,22.65
2023-05-01T06:12:43.967Z,18.80
2023-05-01T06:16:52.671Z,20.67
2023-05-01T06:20:57.298Z,20.02
2023-05-01T06:25:02.894Z,23.63
2023-05-01T06:29:10.126Z,19.65
2023-05-01T06:33:13.222Z,20.80
2023-05-01T06:37:18.910Z,22.52
2023-05-01T06:41:25.589Z,28.77
2023-05-01T06:45:35.971Z,28.95
2023-05-01T06:49:39.126Z,20.45
2023-05-01T06:53:43.533Z,20.80
2023-05-01T06:57:50.660Z,17.08
2023-05-01T07:01:54.035Z,23.13
2023-05-01T07:06:00.691Z,17.40
2023-05-01T07:10:05.454Z,15.60
2023-05-01T07:14:08.764Z,16.65
2023-05-01T07:18:13.591Z,16.50
2023-05-01T07:22:16.659Z,16.33
2023-05-01T07:26:21.390Z,15.88
2023-05-01T07:30:26.554Z,16.98
2023-05-01T07:34:32.728Z,20.58
2023-05-01T07:38:38.001Z,16.50
2023-05-01T07:42:45.689Z,16.38
2023-05-01T07:46:51.007Z,14.45
2023-05-01T07:50:54.295Z,14.35
2023-05-01T07:55:00.212Z,14.55
2023-05-01T07:59:04.692Z,10.50
2023-05-01T08:03:14.252Z,11.52
2023-05-01T08:07:17.566Z,10.85
2023-05-01T08:11:22.007Z,9.10
2023-05-01T08:15:28.958Z,16.30
2023-05-01T08:19:32.323Z,14.75
2023-05-01T08:23:35.334Z,10.02
2023-05-01T08:27:40.619Z,13.20
2023-05-01T08:31:45.104Z,7.88
2023-05-01T08:35:48.713Z,10.73
2023-05-01T08:39:55.789Z,7.50
2023-05-01T08:44:01.677Z,5.43
2023-05-01T08:48:13.518Z,5.57
2023-05-01T08:52:19.688Z,8.32
2023-05-01T08:56:23.927Z,7.75
2023-05-01T09:00:34.472Z,6.15
2023-05-01T09:04:43.768Z,5.40
2023-05-01T09:08:48.192Z,6.03
2023-05-01T09:13:00.306Z,6.43
2023-05-01T09:17:06.168Z,8.93
2023-05-01T09:21:13.705Z,6.65
2023-05-01T09:25:22.300Z,6.07
2023-05-01T09:29:39.387Z,9.25
2023-05-01T09:33:55.805Z,8.75
2023-05-01T09:38:06.398Z,4.97
2023-05-01T09:42:13.126Z,6.72
2023-05-01T09:46:17.206Z,7.70
2023-05-01T09:50:32.932Z,5.35
2023-05-01T09:54:37.576Z,6.90
2023-05-01T09:58:40.732Z,4.68
2023-05-01T10:02:47.082Z,5.03
2023-05-01T10:06:50.552Z,4.93
2023-05-01T10:11:07.643Z,4.85
2023-05-01T10:15:23.914Z,9.73
2023-05-01T10:19:31.500Z,4.90
2023-05-01T10:23:34.611Z,7.53
2023-05-01T10:27:40.043Z,7.75
2023-05-01T10:31:43.409Z,10.00
2023-05-01T10:35:50.226Z,15.10
2023-05-01T10:39:53.334Z,8.95
2023-05-01T10:44:22.737Z,8.45
2023-05-01T10:48:54.101Z,6.13
2023-05-01T10:53:18.979Z,37.78
2023-05-01T10:57:43.679Z,11.25
2023-05-01T11:01:52.158Z,5.75
2023-05-01T11:06:09.007Z,5.93
2023-05-01T11:10:27.960Z,5.15
2023-05-01T11:15:07.946Z,9.35
2023-05-01T11:19:33.776Z,3.88
2023-05-01T11:23:39.130Z,4.38
2023-05-01T11:27:53.301Z,6.72
2023-05-01T11:31:58.901Z,6.60
2023-05-01T11:36:05.950Z,6.13
2023-05-01T11:40:21.495Z,4.10
2023-05-01T11:44:24.566Z,4.45
2023-05-01T11:48:28.527Z,6.20
2023-05-01T11:52:44.610Z,5.60
2023-05-01T11:56:49.090Z,4.70
2023-05-01T12:00:56.493Z,5.10
2023-05-01T12:05:15.840Z,5.75
2023-05-01T12:09:24.652Z,3.70
2023-05-01T12:13:28.099Z,4.15
2023-05-01T12:17:33.169Z,6.05
2023-05-01T12:21:36.778Z,4.10
2023-05-01T12:25:42.993Z,4.20
2023-05-01T12:29:51.612Z,5.55
2023-05-01T12:33:58.260Z,6.85
2023-05-01T12:38:04.177Z,3.88
2023-05-01T12:42:15.215Z,4.07
2023-05-01T12:46:18.697Z,6.15
2023-05-01T12:50:28.921Z,3.97
2023-05-01T12:54:33.528Z,4.93
2023-05-01T12:58:41.512Z,5.10
2023-05-01T13:02:45.070Z,5.07
2023-05-01T13:06:49.334Z,6.40
2023-05-01T13:10:57.269Z,6.90
2023-05-01T13:15:01.830Z,6.57
2023-05-01T13:19:08.590Z,7.55
2023-05-01T13:23:14.163Z,6.07
2023-05-01T13:27:22.960Z,7.68
2023-05-01T13:31:27.892Z,7.82
2023-05-01T13:35:31.980Z,9.35
2023-05-01T13:39:35.288Z,7.25
2023-05-01T13:43:41.134Z,11.50
2023-05-01T13:47:45.973Z,8.98
2023-05-01T13:51:52.740Z,7.60
2023-05-01T13:55:59.019Z,8.90
2023-05-01T14:00:02.388Z,10.48
2023-05-01T14:04:10.598Z,10.70
2023-05-01T14:08:15.436Z,11.40
2023-05-01T14:12:20.065Z,11.20
2023-05-01T14:16:27.906Z,10.13
2023-05-01T14:20:35.071Z,11.45
2023-05-01T14:24:41.952Z,13.82
2023-05-01T14:28:46.345Z,11.60
2023-05-01T14:32:51.108Z,11.73
2023-05-01T14:36:58.498Z,11.75
2023-05-01T14:41:01.868Z,13.55
2023-05-01T14:45:06.865Z,15.43
2023-05-01T14:49:12.138Z,16.33
2023-05-01T14:53:16.565Z,17.33
2023-05-01T14:57:20.859Z,16.10
2023-05-01T15:01:24.132Z,13.30
2023-05-01T15:05:28.482Z,11.57
2023-05-01T15:09:34.009Z,14.18
2023-05-01T15:13:37.118Z,11.05
2023-05-01T15:17:40.188Z,12.45
2023-05-01T15:21:43.205Z,10.70
2023-05-01T15:25:51.089Z,13.52
2023-05-01T15:29:54.387Z,13.32
2023-05-01T15:33:57.540Z,10.90
2023-05-01T15:38:08.095Z,10.35
2023-05-01T15:42:12.625Z,11.70
2023-05-01T15:46:16.444Z,11.68
2023-05-01T15:50:23.683Z,10.13
2023-05-01T15:54:30.201Z,13.85
2023-05-01T15:58:34.702Z,12.20
2023-05-01T16:02:37.941Z,12.15
2023-05-01T16:06:43.181Z,19.15
2023-05-01T16:10:46.623Z,13.15
2023-05-01T16:14:51.174Z,11.05
2023-05-01T16:18:56.768Z,12.45
2023-05-01T16:23:04.462Z,10.60
2023-05-01T16:27:11.300Z,11.02
2023-05-01T16:31:27.103Z,10.32
2023-05-01T16:35:31.850Z,8.52
2023-05-01T16:39:38.419Z,8.43
2023-05-01T16:43:41.700Z,9.50
2023-05-01T16:47:46.208Z,9.45
2023-05-01T16:51:49.456Z,8.40
2023-05-01T16:55:53.043Z,10.27
2023-05-01T16:59:57.939Z,14.35
2023-05-01T17:04:03.835Z,8.20
2023-05-01T17:08:06.988Z,8.15
2023-05-01T17:12:10.195Z,10.30
2023-05-01T17:16:13.377Z,8.07
2023-05-01T17:20:19.106Z,10.02
2023-05-01T17:24:22.906Z,11.27
2023-05-01T17:28:28.418Z,8.70
2023-05-01T17:32:36.957Z,9.57
2023-05-01T17:36:50.115Z,10.95
2023-05-01T17:40:56.335Z,13.73
2023-05-01T17:45:04.777Z,9.35
2023-05-01T17:49:08.101Z,9.38
2023-05-01T17:53:15.048Z,10.02
2023-05-01T17:57:18.302Z,10.23
2023-05-01T18:01:21.800Z,10.82
2023-05-01T18:05:28.835Z,11.98
2023-05-01T18:09:33.255Z,11.05
2023-05-01T18:13:39.909Z,14.75
2023-05-01T18:17:48.699Z,13.63
2023-05-01T18:22:07.484Z,10.60
2023-05-01T18:26:12.259Z,11.13
2023-05-01T18:30:15.325Z,9.60
2023-05-01T18:34:19.217Z,12.07
2023-05-01T18:38:26.351Z,11.02
2023-05-01T18:42:32.980Z,9.35
2023-05-01T18:46:36.775Z,12.10
2023-05-01T18:50:40.364Z,11.43
2023-05-01T18:54:43.359Z,11.55
2023-05-01T18:58:51.078Z,13.52
2023-05-01T19:02:54.227Z,14.52
2023-05-01T19:06:57.593Z,13.30
2023-05-01T19:11:06.143Z,13.88
2023-05-01T19:15:19.480Z,12.88
2023-05-01T19:19:27.059Z,14.00
2023-05-01T19:23:31.005Z,13.43
2023-05-01T19:27:40.547Z,14.27
2023-05-01T19:31:45.368Z,18.20
2023-05-01T19:35:53.149Z,22.25
2023-05-01T19:39:56.342Z,23.92
2023-05-01T19:44:02.490Z,24.25
2023-05-01T19:48:08.002Z,23.73
2023-05-01T19:52:15.374Z,21.85
2023-05-01T19:56:22.404Z,22.60
2023-05-01T20:00:25.692Z,27.00
2023-05-01T20:04:30.137Z,23.45
2023-05-01T20:08:36.027Z,22.10
2023-05-01T20:12:42.362Z,24.67
2023-05-01T20:16:46.659Z,26.60
2023-05-01T20:20:52.471Z,22.45
2023-05-01T20:24:55.731Z,27.55
2023-05-01T20:29:01.802Z,24.92
2023-05-01T20:33:07.128Z,26.45
2023-05-01T20:37:11.832Z,27.95
2023-05-01T20:41:17.895Z,29.40
2023-05-01T20:45:20.941Z,26.92
2023-05-01T20:49:23.979Z,25.70
2023-05-01T20:53:29.005Z,25.35
2023-05-01T20:57:32.435Z,25.85
2023-05-01T21:01:38.254Z,25.33
2023-05-01T21:05:41.406Z,28.20
2023-05-01T21:09:46.996Z,24.35
2023-05-01T21:13:49.987Z,25.83
2023-05-01T21:17:55.898Z,32.58
2023-05-01T21:21:59.206Z,29.55
2023-05-01T21:26:03.707Z,31.58
2023-05-01T21:30:11.244Z,34.00
2023-05-01T21:34:17.350Z,40.33
2023-05-01T21:38:25.627Z,36.05
2023-05-01T21:42:31.614Z,37.80
2023-05-01T21:46:39.123Z,37.67
2023-05-01T21:50:45.204Z,38.60
2023-05-01T21:54:48.244Z,35.10
2023-05-01T21:58:52.764Z,35.57
2023-05-01T22:02:56.597Z,32.50
2023-05-01T22:06:59.655Z,29.10
2023-05-01T22:11:08.469Z,28.83
2023-05-01T22:15:15.564Z,32.83
2023-05-01T22:19:18.762Z,33.10
2023-05-01T22:23:24.918Z,27.42
2023-05-01T22:27:27.955Z,29.80
2023-05-01T22:31:32.513Z,34.25
2023-05-01T22:35:38.430Z,23.95
2023-05-01T22:39:44.527Z,32.63
2023-05-01T22:43:47.617Z,29.00
2023-05-01T22:47:55.241Z,32.38
2023-05-01T22:51:59.153Z,33.00
2023-05-01T22:56:04.979Z,38.13
2023-05-01T23:00:12.948Z,27.25
2023-05-01T23:04:20.095Z,33.92
2023-05-01T23:08:23.236Z,34.88
2023-05-01T23:12:28.448Z,32.60
2023-05-01T23:16:38.016Z,29.70
2023-05-01T23:20:45.002Z,30.70
2023-05-01T23:24:49.839Z,33.13
2023-05-01T23:28:53.654Z,31.40
2023-05-01T23:32:59.466Z,30.87
2023-05-01T23:37:06.919Z,32.83
2023-05-01T23:41:14.252Z,34.13
2023-05-01T23:45:17.510Z,38.83
2023-05-01T23:49:20.673Z,37.20
2023-05-01T23:53:25.199Z,39.57
2023-05-01T23:57:28.695Z,33.57
